Alumine, Argentina
Current Conditions -  °F | °C
As of 9:00 AM on Tuesday 21 Oct 2014 (Local Time) from SCQP Reporting Station
Broken Clouds Broken Clouds  
Wind Chill: 57°   Ceiling: 2100
Heat Index: 57°   Visibility: 6mi
Dew Point: 54°   Wind: 3mph
Humidity: 88%   Direction: 340°NNW
Pressure: 29.97"   Gusts: NA
Location:  39.22°S, 70.95°W
Report Text: SCQP 211200Z 34003KT 9999 BKN021 14/12 Q1015
Loading
Personal Weather Stations






























Interactive Weather Map New forecast layout! Learn more

10-Day Weather Forecast

Advertisements
Track Severe Weather on mobile